sensor_id;sensor_type;location;lat;lon;timestamp;P1;durP1;ratioP1;P2;durP2;ratioP2
7881;SDS011;3986;41.884;23.466;2022-10-17T00:00:48;43.13;;;20.23;;
7881;SDS011;3986;41.884;23.466;2022-10-17T00:03:15;42.73;;;19.07;;
7881;SDS011;3986;41.884;23.466;2022-10-17T00:05:44;28.80;;;14.43;;
7881;SDS011;3986;41.884;23.466;2022-10-17T00:08:12;29.97;;;13.33;;
7881;SDS011;3986;41.884;23.466;2022-10-17T00:10:41;29.23;;;11.77;;
7881;SDS011;3986;41.884;23.466;2022-10-17T00:13:08;23.07;;;12.13;;
7881;SDS011;3986;41.884;23.466;2022-10-17T00:15:36;29.93;;;13.90;;
7881;SDS011;3986;41.884;23.466;2022-10-17T00:18:03;26.70;;;14.60;;
7881;SDS011;3986;41.884;23.466;2022-10-17T00:20:30;26.63;;;14.83;;
7881;SDS011;3986;41.884;23.466;2022-10-17T00:22:59;25.93;;;14.53;;
7881;SDS011;3986;41.884;23.466;2022-10-17T00:25:26;37.63;;;15.00;;
7881;SDS011;3986;41.884;23.466;2022-10-17T00:27:54;37.13;;;13.87;;
7881;SDS011;3986;41.884;23.466;2022-10-17T00:30:21;35.57;;;14.50;;
7881;SDS011;3986;41.884;23.466;2022-10-17T00:32:48;37.83;;;14.83;;
7881;SDS011;3986;41.884;23.466;2022-10-17T00:35:15;34.63;;;14.00;;
7881;SDS011;3986;41.884;23.466;2022-10-17T00:37:42;32.27;;;14.53;;
7881;SDS011;3986;41.884;23.466;2022-10-17T00:40:09;25.43;;;12.93;;
7881;SDS011;3986;41.884;23.466;2022-10-17T00:42:36;29.27;;;12.57;;
7881;SDS011;3986;41.884;23.466;2022-10-17T00:45:16;32.03;;;15.23;;
7881;SDS011;3986;41.884;23.466;2022-10-17T00:47:47;28.17;;;13.03;;
7881;SDS011;3986;41.884;23.466;2022-10-17T00:50:18;39.70;;;16.73;;
7881;SDS011;3986;41.884;23.466;2022-10-17T00:52:46;39.80;;;16.23;;
7881;SDS011;3986;41.884;23.466;2022-10-17T00:55:15;38.50;;;15.43;;
7881;SDS011;3986;41.884;23.466;2022-10-17T00:57:45;39.33;;;14.40;;
7881;SDS011;3986;41.884;23.466;2022-10-17T01:00:12;29.10;;;13.10;;
7881;SDS011;3986;41.884;23.466;2022-10-17T01:02:42;34.80;;;15.33;;
7881;SDS011;3986;41.884;23.466;2022-10-17T01:05:10;34.97;;;14.10;;
7881;SDS011;3986;41.884;23.466;2022-10-17T01:07:38;29.13;;;14.03;;
7881;SDS011;3986;41.884;23.466;2022-10-17T01:10:07;27.90;;;15.10;;
7881;SDS011;3986;41.884;23.466;2022-10-17T01:12:37;33.33;;;15.30;;
7881;SDS011;3986;41.884;23.466;2022-10-17T01:15:11;27.77;;;15.83;;
7881;SDS011;3986;41.884;23.466;2022-10-17T01:17:47;36.77;;;16.37;;
7881;SDS011;3986;41.884;23.466;2022-10-17T01:23:27;37.47;;;17.03;;
7881;SDS011;3986;41.884;23.466;2022-10-17T01:26:10;30.97;;;17.07;;
7881;SDS011;3986;41.884;23.466;2022-10-17T01:28:55;36.33;;;17.97;;
7881;SDS011;3986;41.884;23.466;2022-10-17T01:31:36;33.33;;;17.10;;
7881;SDS011;3986;41.884;23.466;2022-10-17T01:34:10;21.30;;;17.77;;
7881;SDS011;3986;41.884;23.466;2022-10-17T01:36:42;20.63;;;16.60;;
7881;SDS011;3986;41.884;23.466;2022-10-17T01:39:18;30.77;;;16.73;;
7881;SDS011;3986;41.884;23.466;2022-10-17T01:41:50;31.10;;;17.47;;
7881;SDS011;3986;41.884;23.466;2022-10-17T01:44:23;33.90;;;16.53;;
7881;SDS011;3986;41.884;23.466;2022-10-17T01:46:57;31.20;;;16.93;;
7881;SDS011;3986;41.884;23.466;2022-10-17T01:49:28;39.13;;;15.40;;
7881;SDS011;3986;41.884;23.466;2022-10-17T01:51:59;31.40;;;15.33;;
7881;SDS011;3986;41.884;23.466;2022-10-17T01:54:31;32.90;;;16.03;;
7881;SDS011;3986;41.884;23.466;2022-10-17T01:57:03;31.83;;;16.10;;
7881;SDS011;3986;41.884;23.466;2022-10-17T01:59:34;29.80;;;15.33;;
7881;SDS011;3986;41.884;23.466;2022-10-17T02:02:05;32.23;;;13.80;;
7881;SDS011;3986;41.884;23.466;2022-10-17T02:04:34;30.87;;;14.20;;
7881;SDS011;3986;41.884;23.466;2022-10-17T02:07:05;28.77;;;13.63;;
7881;SDS011;3986;41.884;23.466;2022-10-17T02:09:32;33.67;;;13.00;;
7881;SDS011;3986;41.884;23.466;2022-10-17T02:12:03;31.37;;;13.17;;
7881;SDS011;3986;41.884;23.466;2022-10-17T02:14:48;20.93;;;11.47;;
7881;SDS011;3986;41.884;23.466;2022-10-17T02:17:28;19.03;;;11.10;;
7881;SDS011;3986;41.884;23.466;2022-10-17T02:20:08;28.17;;;12.37;;
7881;SDS011;3986;41.884;23.466;2022-10-17T02:22:41;24.87;;;11.37;;
7881;SDS011;3986;41.884;23.466;2022-10-17T02:25:13;15.33;;;10.77;;
7881;SDS011;3986;41.884;23.466;2022-10-17T02:27:49;26.97;;;15.30;;
7881;SDS011;3986;41.884;23.466;2022-10-17T02:30:22;36.37;;;15.23;;
7881;SDS011;3986;41.884;23.466;2022-10-17T02:32:56;33.13;;;14.27;;
7881;SDS011;3986;41.884;23.466;2022-10-17T02:35:28;41.17;;;13.77;;
7881;SDS011;3986;41.884;23.466;2022-10-17T02:37:58;36.40;;;12.80;;
7881;SDS011;3986;41.884;23.466;2022-10-17T02:40:25;35.23;;;12.93;;
7881;SDS011;3986;41.884;23.466;2022-10-17T02:42:54;35.03;;;13.60;;
7881;SDS011;3986;41.884;23.466;2022-10-17T02:45:22;34.97;;;13.37;;
7881;SDS011;3986;41.884;23.466;2022-10-17T02:47:53;43.10;;;16.73;;
7881;SDS011;3986;41.884;23.466;2022-10-17T02:50:26;39.53;;;17.43;;
7881;SDS011;3986;41.884;23.466;2022-10-17T02:52:58;37.90;;;15.50;;
7881;SDS011;3986;41.884;23.466;2022-10-17T02:55:30;36.43;;;16.73;;
7881;SDS011;3986;41.884;23.466;2022-10-17T02:57:59;41.97;;;15.37;;
7881;SDS011;3986;41.884;23.466;2022-10-17T03:00:32;42.73;;;14.33;;
7881;SDS011;3986;41.884;23.466;2022-10-17T03:03:01;34.90;;;12.97;;
7881;SDS011;3986;41.884;23.466;2022-10-17T03:05:44;30.83;;;14.03;;
7881;SDS011;3986;41.884;23.466;2022-10-17T03:08:11;32.47;;;15.17;;
7881;SDS011;3986;41.884;23.466;2022-10-17T03:10:37;47.13;;;16.87;;
7881;SDS011;3986;41.884;23.466;2022-10-17T03:13:04;50.83;;;22.03;;
7881;SDS011;3986;41.884;23.466;2022-10-17T03:15:31;49.17;;;27.10;;
7881;SDS011;3986;41.884;23.466;2022-10-17T03:17:58;52.20;;;30.03;;
7881;SDS011;3986;41.884;23.466;2022-10-17T03:20:26;53.40;;;30.83;;
7881;SDS011;3986;41.884;23.466;2022-10-17T03:22:52;58.50;;;31.60;;
7881;SDS011;3986;41.884;23.466;2022-10-17T03:25:19;44.50;;;25.57;;
7881;SDS011;3986;41.884;23.466;2022-10-17T03:27:46;51.90;;;30.87;;
7881;SDS011;3986;41.884;23.466;2022-10-17T03:30:13;55.77;;;26.53;;
7881;SDS011;3986;41.884;23.466;2022-10-17T03:32:40;49.97;;;27.27;;
7881;SDS011;3986;41.884;23.466;2022-10-17T03:35:07;53.50;;;26.20;;
7881;SDS011;3986;41.884;23.466;2022-10-17T03:37:35;47.97;;;21.73;;
7881;SDS011;3986;41.884;23.466;2022-10-17T03:40:02;49.37;;;21.73;;
7881;SDS011;3986;41.884;23.466;2022-10-17T03:42:30;42.83;;;18.83;;
7881;SDS011;3986;41.884;23.466;2022-10-17T03:44:57;42.70;;;18.60;;
7881;SDS011;3986;41.884;23.466;2022-10-17T03:47:23;28.57;;;19.40;;
7881;SDS011;3986;41.884;23.466;2022-10-17T03:49:50;33.30;;;19.80;;
7881;SDS011;3986;41.884;23.466;2022-10-17T03:52:18;24.80;;;17.67;;
7881;SDS011;3986;41.884;23.466;2022-10-17T03:54:47;30.63;;;19.03;;
7881;SDS011;3986;41.884;23.466;2022-10-17T03:57:15;36.40;;;20.53;;
7881;SDS011;3986;41.884;23.466;2022-10-17T03:59:41;46.23;;;22.70;;
7881;SDS011;3986;41.884;23.466;2022-10-17T04:02:08;46.03;;;23.50;;
7881;SDS011;3986;41.884;23.466;2022-10-17T04:04:35;49.47;;;24.47;;
7881;SDS011;3986;41.884;23.466;2022-10-17T04:07:02;46.67;;;23.23;;
7881;SDS011;3986;41.884;23.466;2022-10-17T04:09:29;45.10;;;23.90;;
7881;SDS011;3986;41.884;23.466;2022-10-17T04:11:57;43.77;;;26.90;;
7881;SDS011;3986;41.884;23.466;2022-10-17T04:14:24;41.73;;;26.93;;
7881;SDS011;3986;41.884;23.466;2022-10-17T04:16:51;42.53;;;26.77;;
7881;SDS011;3986;41.884;23.466;2022-10-17T04:19:18;35.23;;;26.70;;
7881;SDS011;3986;41.884;23.466;2022-10-17T04:21:45;59.10;;;34.27;;
7881;SDS011;3986;41.884;23.466;2022-10-17T04:24:12;55.30;;;30.50;;
7881;SDS011;3986;41.884;23.466;2022-10-17T04:26:39;52.13;;;32.73;;
7881;SDS011;3986;41.884;23.466;2022-10-17T04:29:07;58.90;;;34.63;;
7881;SDS011;3986;41.884;23.466;2022-10-17T04:31:34;63.70;;;40.83;;
7881;SDS011;3986;41.884;23.466;2022-10-17T04:34:01;69.93;;;45.47;;
7881;SDS011;3986;41.884;23.466;2022-10-17T04:36:28;60.20;;;36.43;;
7881;SDS011;3986;41.884;23.466;2022-10-17T04:38:54;48.27;;;29.80;;
7881;SDS011;3986;41.884;23.466;2022-10-17T04:41:21;44.07;;;26.53;;
7881;SDS011;3986;41.884;23.466;2022-10-17T04:43:48;30.87;;;27.73;;
7881;SDS011;3986;41.884;23.466;2022-10-17T04:46:17;65.57;;;34.63;;
7881;SDS011;3986;41.884;23.466;2022-10-17T04:48:43;76.50;;;39.03;;
7881;SDS011;3986;41.884;23.466;2022-10-17T04:51:11;79.17;;;34.80;;
7881;SDS011;3986;41.884;23.466;2022-10-17T04:53:39;60.80;;;33.90;;
7881;SDS011;3986;41.884;23.466;2022-10-17T04:56:07;74.53;;;33.57;;
7881;SDS011;3986;41.884;23.466;2022-10-17T04:58:36;61.87;;;31.63;;
7881;SDS011;3986;41.884;23.466;2022-10-17T05:01:03;63.03;;;33.40;;
7881;SDS011;3986;41.884;23.466;2022-10-17T05:03:33;77.70;;;34.07;;
7881;SDS011;3986;41.884;23.466;2022-10-17T05:06:04;56.43;;;30.63;;
7881;SDS011;3986;41.884;23.466;2022-10-17T05:08:31;72.07;;;29.33;;
7881;SDS011;3986;41.884;23.466;2022-10-17T05:10:58;56.30;;;29.90;;
7881;SDS011;3986;41.884;23.466;2022-10-17T05:13:25;46.33;;;22.57;;
7881;SDS011;3986;41.884;23.466;2022-10-17T05:15:51;51.10;;;23.60;;
7881;SDS011;3986;41.884;23.466;2022-10-17T05:18:18;57.83;;;23.93;;
7881;SDS011;3986;41.884;23.466;2022-10-17T05:20:46;73.33;;;27.87;;
7881;SDS011;3986;41.884;23.466;2022-10-17T05:23:13;79.10;;;38.70;;
7881;SDS011;3986;41.884;23.466;2022-10-17T05:25:40;91.30;;;37.93;;
7881;SDS011;3986;41.884;23.466;2022-10-17T05:28:07;79.77;;;40.20;;
7881;SDS011;3986;41.884;23.466;2022-10-17T05:30:34;83.80;;;35.83;;
7881;SDS011;3986;41.884;23.466;2022-10-17T05:33:01;44.83;;;31.43;;
7881;SDS011;3986;41.884;23.466;2022-10-17T05:35:28;55.40;;;31.73;;
7881;SDS011;3986;41.884;23.466;2022-10-17T05:37:56;66.27;;;37.33;;
7881;SDS011;3986;41.884;23.466;2022-10-17T05:40:23;88.97;;;52.90;;
7881;SDS011;3986;41.884;23.466;2022-10-17T05:42:50;73.67;;;38.47;;
7881;SDS011;3986;41.884;23.466;2022-10-17T05:45:17;70.47;;;34.67;;
7881;SDS011;3986;41.884;23.466;2022-10-17T05:47:44;75.80;;;37.03;;
7881;SDS011;3986;41.884;23.466;2022-10-17T05:50:11;75.00;;;37.03;;
7881;SDS011;3986;41.884;23.466;2022-10-17T05:52:38;73.17;;;42.40;;
7881;SDS011;3986;41.884;23.466;2022-10-17T05:55:07;81.17;;;39.57;;
7881;SDS011;3986;41.884;23.466;2022-10-17T05:57:34;93.20;;;49.37;;
7881;SDS011;3986;41.884;23.466;2022-10-17T06:00:04;97.77;;;47.23;;
7881;SDS011;3986;41.884;23.466;2022-10-17T06:02:31;74.83;;;45.90;;
7881;SDS011;3986;41.884;23.466;2022-10-17T06:04:58;60.30;;;46.77;;
7881;SDS011;3986;41.884;23.466;2022-10-17T06:07:25;86.23;;;45.17;;
7881;SDS011;3986;41.884;23.466;2022-10-17T06:09:51;78.03;;;45.43;;
7881;SDS011;3986;41.884;23.466;2022-10-17T06:12:20;78.80;;;64.57;;
7881;SDS011;3986;41.884;23.466;2022-10-17T06:14:47;78.10;;;57.00;;
7881;SDS011;3986;41.884;23.466;2022-10-17T06:17:14;103.23;;;55.63;;
7881;SDS011;3986;41.884;23.466;2022-10-17T06:19:40;100.80;;;52.80;;
7881;SDS011;3986;41.884;23.466;2022-10-17T06:22:08;78.47;;;52.83;;
7881;SDS011;3986;41.884;23.466;2022-10-17T06:24:35;81.13;;;53.53;;
7881;SDS011;3986;41.884;23.466;2022-10-17T06:27:02;75.90;;;61.63;;
7881;SDS011;3986;41.884;23.466;2022-10-17T06:29:30;100.10;;;64.63;;
7881;SDS011;3986;41.884;23.466;2022-10-17T06:31:57;91.83;;;66.23;;
7881;SDS011;3986;41.884;23.466;2022-10-17T06:34:24;77.73;;;63.93;;
7881;SDS011;3986;41.884;23.466;2022-10-17T06:36:51;82.83;;;60.20;;
7881;SDS011;3986;41.884;23.466;2022-10-17T06:39:18;84.37;;;53.03;;
7881;SDS011;3986;41.884;23.466;2022-10-17T06:41:45;75.07;;;45.87;;
7881;SDS011;3986;41.884;23.466;2022-10-17T06:44:12;69.27;;;43.00;;
7881;SDS011;3986;41.884;23.466;2022-10-17T06:46:40;83.93;;;44.63;;
7881;SDS011;3986;41.884;23.466;2022-10-17T06:49:08;75.30;;;41.63;;
7881;SDS011;3986;41.884;23.466;2022-10-17T06:51:35;68.53;;;38.83;;
7881;SDS011;3986;41.884;23.466;2022-10-17T06:54:03;74.57;;;39.27;;
7881;SDS011;3986;41.884;23.466;2022-10-17T06:56:29;69.17;;;46.80;;
7881;SDS011;3986;41.884;23.466;2022-10-17T06:58:56;68.17;;;47.90;;
7881;SDS011;3986;41.884;23.466;2022-10-17T07:01:23;84.07;;;68.97;;
7881;SDS011;3986;41.884;23.466;2022-10-17T07:03:52;111.70;;;67.27;;
7881;SDS011;3986;41.884;23.466;2022-10-17T07:06:24;103.47;;;63.10;;
7881;SDS011;3986;41.884;23.466;2022-10-17T07:08:53;86.03;;;62.20;;
7881;SDS011;3986;41.884;23.466;2022-10-17T07:11:21;96.00;;;62.80;;
7881;SDS011;3986;41.884;23.466;2022-10-17T07:13:48;107.53;;;67.23;;
7881;SDS011;3986;41.884;23.466;2022-10-17T07:16:15;135.83;;;67.67;;
7881;SDS011;3986;41.884;23.466;2022-10-17T07:18:42;162.53;;;66.67;;
7881;SDS011;3986;41.884;23.466;2022-10-17T07:21:12;93.90;;;54.93;;
7881;SDS011;3986;41.884;23.466;2022-10-17T07:23:39;77.73;;;54.77;;
7881;SDS011;3986;41.884;23.466;2022-10-17T07:26:06;70.67;;;52.10;;
7881;SDS011;3986;41.884;23.466;2022-10-17T07:28:35;112.23;;;61.97;;
7881;SDS011;3986;41.884;23.466;2022-10-17T07:31:03;126.50;;;56.93;;
7881;SDS011;3986;41.884;23.466;2022-10-17T07:33:31;84.60;;;49.47;;
7881;SDS011;3986;41.884;23.466;2022-10-17T07:36:00;53.83;;;46.13;;
7881;SDS011;3986;41.884;23.466;2022-10-17T07:38:31;51.50;;;46.57;;
7881;SDS011;3986;41.884;23.466;2022-10-17T07:40:59;49.50;;;43.73;;
7881;SDS011;3986;41.884;23.466;2022-10-17T07:43:27;68.87;;;45.93;;
7881;SDS011;3986;41.884;23.466;2022-10-17T07:45:54;65.13;;;46.57;;
7881;SDS011;3986;41.884;23.466;2022-10-17T07:48:21;71.40;;;45.53;;
7881;SDS011;3986;41.884;23.466;2022-10-17T07:50:49;65.47;;;47.20;;
7881;SDS011;3986;41.884;23.466;2022-10-17T07:53:16;54.33;;;45.93;;
7881;SDS011;3986;41.884;23.466;2022-10-17T07:55:45;56.17;;;41.50;;
7881;SDS011;3986;41.884;23.466;2022-10-17T07:58:12;44.42;;;38.35;;
7881;SDS011;3986;41.884;23.466;2022-10-17T08:00:39;51.00;;;42.65;;
7881;SDS011;3986;41.884;23.466;2022-10-17T08:03:06;62.20;;;45.35;;
7881;SDS011;3986;41.884;23.466;2022-10-17T08:05:34;71.78;;;46.90;;
7881;SDS011;3986;41.884;23.466;2022-10-17T08:08:02;65.63;;;48.25;;
7881;SDS011;3986;41.884;23.466;2022-10-17T08:10:29;83.30;;;39.78;;
7881;SDS011;3986;41.884;23.466;2022-10-17T08:12:57;42.63;;;32.05;;
7881;SDS011;3986;41.884;23.466;2022-10-17T08:15:24;58.88;;;31.30;;
7881;SDS011;3986;41.884;23.466;2022-10-17T08:17:52;65.63;;;32.10;;
7881;SDS011;3986;41.884;23.466;2022-10-17T08:20:20;41.60;;;31.65;;
7881;SDS011;3986;41.884;23.466;2022-10-17T08:22:50;49.40;;;41.25;;
7881;SDS011;3986;41.884;23.466;2022-10-17T08:25:17;52.58;;;32.53;;
7881;SDS011;3986;41.884;23.466;2022-10-17T08:27:44;47.63;;;31.73;;
7881;SDS011;3986;41.884;23.466;2022-10-17T08:30:12;121.10;;;40.75;;
7881;SDS011;3986;41.884;23.466;2022-10-17T08:32:45;36.35;;;32.38;;
7881;SDS011;3986;41.884;23.466;2022-10-17T08:35:12;70.30;;;28.83;;
7881;SDS011;3986;41.884;23.466;2022-10-17T08:37:39;43.38;;;24.02;;
7881;SDS011;3986;41.884;23.466;2022-10-17T08:40:08;46.97;;;22.83;;
7881;SDS011;3986;41.884;23.466;2022-10-17T08:42:49;101.35;;;22.02;;
7881;SDS011;3986;41.884;23.466;2022-10-17T08:45:50;123.22;;;27.00;;
7881;SDS011;3986;41.884;23.466;2022-10-17T08:48:20;58.03;;;15.52;;
7881;SDS011;3986;41.884;23.466;2022-10-17T08:50:50;74.03;;;19.00;;
7881;SDS011;3986;41.884;23.466;2022-10-17T08:53:22;49.83;;;14.35;;
7881;SDS011;3986;41.884;23.466;2022-10-17T08:55:53;66.63;;;15.68;;
7881;SDS011;3986;41.884;23.466;2022-10-17T08:58:22;56.53;;;19.52;;
7881;SDS011;3986;41.884;23.466;2022-10-17T09:00:55;73.70;;;23.50;;
7881;SDS011;3986;41.884;23.466;2022-10-17T09:03:42;74.10;;;22.95;;
7881;SDS011;3986;41.884;23.466;2022-10-17T09:06:18;63.90;;;16.85;;
7881;SDS011;3986;41.884;23.466;2022-10-17T09:08:57;53.47;;;13.52;;
7881;SDS011;3986;41.884;23.466;2022-10-17T09:14:31;53.28;;;27.83;;
7881;SDS011;3986;41.884;23.466;2022-10-17T09:17:29;102.32;;;21.92;;
7881;SDS011;3986;41.884;23.466;2022-10-17T09:20:03;62.55;;;15.88;;
7881;SDS011;3986;41.884;23.466;2022-10-17T09:22:36;74.80;;;17.48;;
7881;SDS011;3986;41.884;23.466;2022-10-17T09:25:09;31.35;;;9.32;;
7881;SDS011;3986;41.884;23.466;2022-10-17T09:27:39;49.47;;;12.13;;
7881;SDS011;3986;41.884;23.466;2022-10-17T09:30:18;63.70;;;9.50;;
7881;SDS011;3986;41.884;23.466;2022-10-17T09:33:00;43.40;;;12.18;;
7881;SDS011;3986;41.884;23.466;2022-10-17T09:35:36;41.08;;;8.90;;
7881;SDS011;3986;41.884;23.466;2022-10-17T09:38:04;33.30;;;9.88;;
7881;SDS011;3986;41.884;23.466;2022-10-17T09:40:33;45.90;;;9.85;;
7881;SDS011;3986;41.884;23.466;2022-10-17T09:43:01;29.52;;;6.13;;
7881;SDS011;3986;41.884;23.466;2022-10-17T09:45:31;67.32;;;9.10;;
7881;SDS011;3986;41.884;23.466;2022-10-17T09:48:07;75.15;;;14.23;;
7881;SDS011;3986;41.884;23.466;2022-10-17T09:50:38;54.90;;;14.63;;
7881;SDS011;3986;41.884;23.466;2022-10-17T09:53:09;86.50;;;24.52;;
7881;SDS011;3986;41.884;23.466;2022-10-17T09:55:40;88.35;;;8.95;;
7881;SDS011;3986;41.884;23.466;2022-10-17T09:58:10;77.32;;;9.75;;
7881;SDS011;3986;41.884;23.466;2022-10-17T10:00:38;86.45;;;12.48;;
7881;SDS011;3986;41.884;23.466;2022-10-17T10:03:15;112.25;;;14.70;;
7881;SDS011;3986;41.884;23.466;2022-10-17T10:05:57;55.75;;;9.00;;
7881;SDS011;3986;41.884;23.466;2022-10-17T10:08:27;76.90;;;9.02;;
7881;SDS011;3986;41.884;23.466;2022-10-17T10:10:59;93.22;;;11.38;;
7881;SDS011;3986;41.884;23.466;2022-10-17T10:13:28;61.50;;;13.48;;
7881;SDS011;3986;41.884;23.466;2022-10-17T10:16:12;82.22;;;11.90;;
7881;SDS011;3986;41.884;23.466;2022-10-17T10:18:43;109.57;;;12.63;;
7881;SDS011;3986;41.884;23.466;2022-10-17T10:21:11;59.97;;;7.47;;
7881;SDS011;3986;41.884;23.466;2022-10-17T10:23:40;45.83;;;8.80;;
7881;SDS011;3986;41.884;23.466;2022-10-17T10:47:15;134.02;;;61.50;;
7881;SDS011;3986;41.884;23.466;2022-10-17T10:49:45;126.07;;;70.18;;
7881;SDS011;3986;41.884;23.466;2022-10-17T10:52:15;385.58;;;343.83;;
7881;SDS011;3986;41.884;23.466;2022-10-17T10:54:49;353.70;;;314.10;;
7881;SDS011;3986;41.884;23.466;2022-10-17T10:57:22;357.73;;;319.45;;
7881;SDS011;3986;41.884;23.466;2022-10-17T10:59:55;58.17;;;10.55;;
7881;SDS011;3986;41.884;23.466;2022-10-17T11:02:30;52.60;;;10.63;;
7881;SDS011;3986;41.884;23.466;2022-10-17T11:05:02;136.50;;;16.42;;
7881;SDS011;3986;41.884;23.466;2022-10-17T11:07:37;49.28;;;10.80;;
7881;SDS011;3986;41.884;23.466;2022-10-17T11:10:11;18.33;;;7.22;;
7881;SDS011;3986;41.884;23.466;2022-10-17T11:12:43;75.80;;;10.63;;
7881;SDS011;3986;41.884;23.466;2022-10-17T11:15:16;29.48;;;6.28;;
7881;SDS011;3986;41.884;23.466;2022-10-17T11:17:51;92.60;;;9.40;;
7881;SDS011;3986;41.884;23.466;2022-10-17T11:20:25;45.03;;;6.45;;
7881;SDS011;3986;41.884;23.466;2022-10-17T11:23:00;63.03;;;7.65;;
7881;SDS011;3986;41.884;23.466;2022-10-17T11:25:39;60.58;;;24.05;;
7881;SDS011;3986;41.884;23.466;2022-10-17T11:28:10;84.28;;;30.73;;
7881;SDS011;3986;41.884;23.466;2022-10-17T11:30:49;68.97;;;22.70;;
7881;SDS011;3986;41.884;23.466;2022-10-17T11:33:23;138.55;;;16.70;;
7881;SDS011;3986;41.884;23.466;2022-10-17T11:35:54;80.70;;;16.58;;
7881;SDS011;3986;41.884;23.466;2022-10-17T11:38:29;108.20;;;11.63;;
7881;SDS011;3986;41.884;23.466;2022-10-17T11:41:03;63.45;;;10.48;;
7881;SDS011;3986;41.884;23.466;2022-10-17T11:43:32;29.58;;;6.75;;
7881;SDS011;3986;41.884;23.466;2022-10-17T11:46:04;50.22;;;8.73;;
7881;SDS011;3986;41.884;23.466;2022-10-17T11:48:40;46.03;;;7.25;;
7881;SDS011;3986;41.884;23.466;2022-10-17T11:51:11;61.35;;;7.13;;
7881;SDS011;3986;41.884;23.466;2022-10-17T11:53:44;31.42;;;5.65;;
7881;SDS011;3986;41.884;23.466;2022-10-17T11:56:16;34.38;;;6.72;;
7881;SDS011;3986;41.884;23.466;2022-10-17T11:59:06;35.53;;;6.38;;
7881;SDS011;3986;41.884;23.466;2022-10-17T12:01:47;39.85;;;7.70;;
7881;SDS011;3986;41.884;23.466;2022-10-17T12:04:20;39.60;;;6.78;;
7881;SDS011;3986;41.884;23.466;2022-10-17T12:07:03;59.65;;;6.93;;
7881;SDS011;3986;41.884;23.466;2022-10-17T12:09:38;40.35;;;5.72;;
7881;SDS011;3986;41.884;23.466;2022-10-17T12:12:10;41.63;;;6.95;;
7881;SDS011;3986;41.884;23.466;2022-10-17T12:14:50;87.80;;;9.35;;
7881;SDS011;3986;41.884;23.466;2022-10-17T12:17:22;97.38;;;9.23;;
7881;SDS011;3986;41.884;23.466;2022-10-17T12:22:52;68.25;;;10.45;;
7881;SDS011;3986;41.884;23.466;2022-10-17T12:25:21;74.72;;;6.97;;
7881;SDS011;3986;41.884;23.466;2022-10-17T12:27:50;36.83;;;5.35;;
7881;SDS011;3986;41.884;23.466;2022-10-17T12:30:47;60.80;;;8.18;;
7881;SDS011;3986;41.884;23.466;2022-10-17T12:33:19;62.20;;;6.90;;
7881;SDS011;3986;41.884;23.466;2022-10-17T12:35:49;79.03;;;12.13;;
7881;SDS011;3986;41.884;23.466;2022-10-17T12:38:21;57.58;;;6.35;;
7881;SDS011;3986;41.884;23.466;2022-10-17T12:40:54;35.50;;;5.53;;
7881;SDS011;3986;41.884;23.466;2022-10-17T12:46:42;34.85;;;6.88;;
7881;SDS011;3986;41.884;23.466;2022-10-17T12:49:19;74.60;;;6.63;;
7881;SDS011;3986;41.884;23.466;2022-10-17T12:54:57;122.15;;;11.68;;
7881;SDS011;3986;41.884;23.466;2022-10-17T12:57:33;36.85;;;8.85;;
7881;SDS011;3986;41.884;23.466;2022-10-17T13:00:04;63.55;;;7.35;;
7881;SDS011;3986;41.884;23.466;2022-10-17T13:02:41;50.92;;;6.53;;
7881;SDS011;3986;41.884;23.466;2022-10-17T13:05:10;67.72;;;7.32;;
7881;SDS011;3986;41.884;23.466;2022-10-17T13:07:43;64.75;;;12.77;;
7881;SDS011;3986;41.884;23.466;2022-10-17T13:10:19;51.03;;;9.13;;
7881;SDS011;3986;41.884;23.466;2022-10-17T13:12:48;23.92;;;7.63;;
7881;SDS011;3986;41.884;23.466;2022-10-17T13:15:16;54.05;;;7.15;;
7881;SDS011;3986;41.884;23.466;2022-10-17T13:17:45;46.05;;;7.95;;
7881;SDS011;3986;41.884;23.466;2022-10-17T13:20:25;45.92;;;6.65;;
7881;SDS011;3986;41.884;23.466;2022-10-17T13:22:55;72.10;;;6.97;;
7881;SDS011;3986;41.884;23.466;2022-10-17T13:25:23;32.33;;;5.22;;
7881;SDS011;3986;41.884;23.466;2022-10-17T13:27:58;32.08;;;5.32;;
7881;SDS011;3986;41.884;23.466;2022-10-17T13:30:31;74.18;;;9.52;;
7881;SDS011;3986;41.884;23.466;2022-10-17T13:32:59;19.92;;;5.13;;
7881;SDS011;3986;41.884;23.466;2022-10-17T13:35:27;45.90;;;5.95;;
7881;SDS011;3986;41.884;23.466;2022-10-17T13:37:58;37.55;;;5.63;;
7881;SDS011;3986;41.884;23.466;2022-10-17T13:40:28;50.28;;;5.70;;
7881;SDS011;3986;41.884;23.466;2022-10-17T13:42:57;11.95;;;3.63;;
7881;SDS011;3986;41.884;23.466;2022-10-17T13:45:27;36.20;;;7.63;;
7881;SDS011;3986;41.884;23.466;2022-10-17T13:47:56;36.45;;;6.43;;
7881;SDS011;3986;41.884;23.466;2022-10-17T13:50:27;10.45;;;4.65;;
7881;SDS011;3986;41.884;23.466;2022-10-17T13:53:13;79.15;;;7.85;;
7881;SDS011;3986;41.884;23.466;2022-10-17T13:55:56;37.78;;;5.65;;
7881;SDS011;3986;41.884;23.466;2022-10-17T13:58:25;32.90;;;5.22;;
7881;SDS011;3986;41.884;23.466;2022-10-17T14:00:56;48.90;;;5.40;;
7881;SDS011;3986;41.884;23.466;2022-10-17T14:03:24;37.42;;;5.90;;
7881;SDS011;3986;41.884;23.466;2022-10-17T14:05:58;30.85;;;5.38;;
7881;SDS011;3986;41.884;23.466;2022-10-17T14:08:29;37.53;;;6.25;;
7881;SDS011;3986;41.884;23.466;2022-10-17T14:10:57;24.13;;;5.45;;
7881;SDS011;3986;41.884;23.466;2022-10-17T14:13:25;42.70;;;7.43;;
7881;SDS011;3986;41.884;23.466;2022-10-17T14:15:54;57.40;;;8.32;;
7881;SDS011;3986;41.884;23.466;2022-10-17T14:18:26;44.30;;;10.30;;
7881;SDS011;3986;41.884;23.466;2022-10-17T14:20:54;66.00;;;8.82;;
7881;SDS011;3986;41.884;23.466;2022-10-17T14:23:29;66.65;;;10.02;;
7881;SDS011;3986;41.884;23.466;2022-10-17T14:26:06;51.08;;;11.40;;
7881;SDS011;3986;41.884;23.466;2022-10-17T14:28:36;63.17;;;11.73;;
7881;SDS011;3986;41.884;23.466;2022-10-17T14:31:08;54.63;;;12.35;;
7881;SDS011;3986;41.884;23.466;2022-10-17T14:33:41;49.25;;;11.77;;
7881;SDS011;3986;41.884;23.466;2022-10-17T14:36:10;39.25;;;11.60;;
7881;SDS011;3986;41.884;23.466;2022-10-17T14:38:42;76.35;;;10.70;;
7881;SDS011;3986;41.884;23.466;2022-10-17T14:41:12;58.97;;;8.23;;
7881;SDS011;3986;41.884;23.466;2022-10-17T14:43:44;64.63;;;10.45;;
7881;SDS011;3986;41.884;23.466;2022-10-17T14:46:17;49.50;;;12.10;;
7881;SDS011;3986;41.884;23.466;2022-10-17T14:48:44;57.58;;;13.18;;
7881;SDS011;3986;41.884;23.466;2022-10-17T14:51:13;52.78;;;21.35;;
7881;SDS011;3986;41.884;23.466;2022-10-17T14:53:43;56.55;;;17.60;;
7881;SDS011;3986;41.884;23.466;2022-10-17T14:56:24;72.13;;;21.50;;
7881;SDS011;3986;41.884;23.466;2022-10-17T14:58:53;51.05;;;23.92;;
7881;SDS011;3986;41.884;23.466;2022-10-17T15:01:19;53.88;;;29.08;;
7881;SDS011;3986;41.884;23.466;2022-10-17T15:03:46;76.80;;;29.20;;
7881;SDS011;3986;41.884;23.466;2022-10-17T15:06:15;54.17;;;25.08;;
7881;SDS011;3986;41.884;23.466;2022-10-17T15:08:45;44.40;;;23.27;;
7881;SDS011;3986;41.884;23.466;2022-10-17T15:11:12;89.88;;;34.00;;
7881;SDS011;3986;41.884;23.466;2022-10-17T15:13:39;77.10;;;34.90;;
7881;SDS011;3986;41.884;23.466;2022-10-17T15:16:09;73.25;;;30.98;;
7881;SDS011;3986;41.884;23.466;2022-10-17T15:18:41;76.80;;;30.35;;
7881;SDS011;3986;41.884;23.466;2022-10-17T15:21:09;107.20;;;37.28;;
7881;SDS011;3986;41.884;23.466;2022-10-17T15:23:38;82.68;;;36.30;;
7881;SDS011;3986;41.884;23.466;2022-10-17T15:26:10;54.63;;;29.50;;
7881;SDS011;3986;41.884;23.466;2022-10-17T15:28:40;71.55;;;22.42;;
7881;SDS011;3986;41.884;23.466;2022-10-17T15:31:08;36.58;;;13.98;;